PAS121 EPWR-LATI
Flight info
| Callsign | PAS121 |
|---|---|
| Flight time | N/A |
| Altitude | 39000 |
| Route | PEKOT L616 DESEN DCT VALPI DCT TONDO DCT KOSIV/N0456F380 DCT AKIKA/N0389F180 T8 INLOT |
| Aircraft | B738/M-SDE2E3FGHIRWXY/LB1 |
Departure
| Time | 2026-05-07 16:51 |
|---|---|
| Airport | Copernicus Wrocław Airport (EPWR) |
Arrival
| Time | N/A |
|---|---|
| Airport | Tirana International Airport Mother Teresa (LATI) |
| Time | Latitude | Longitude | Altitude | Speed | Heading |
|---|---|---|---|---|---|
| 2026-05-07 16:24 | 51.10888 | 16.87940 | 402 ft | 0 kts | 26° |
| 2026-05-07 16:37 | 51.10885 | 16.87937 | 402 ft | 0 kts | 26° |
| 2026-05-07 16:39 | 51.10876 | 16.87931 | 403 ft | 3 kts | 25° |
| 2026-05-07 16:40 | 51.10858 | 16.87917 | 400 ft | 3 kts | 24° |
| 2026-05-07 16:40 | 51.10840 | 16.87905 | 399 ft | 3 kts | 15° |
| 2026-05-07 16:40 | 51.10827 | 16.87902 | 398 ft | 1 kts | 346° |
| 2026-05-07 16:40 | 51.10819 | 16.87908 | 401 ft | 1 kts | 313° |
| 2026-05-07 16:41 | 51.10813 | 16.87919 | 399 ft | 1 kts | 301° |
| 2026-05-07 16:41 | 51.10809 | 16.87930 | 397 ft | 1 kts | 298° |
| 2026-05-07 16:41 | 51.10807 | 16.87934 | 398 ft | 0 kts | 298° |
| 2026-05-07 16:44 | 51.10812 | 16.87921 | 399 ft | 4 kts | 298° |
| 2026-05-07 16:45 | 51.10840 | 16.87831 | 402 ft | 14 kts | 295° |
| 2026-05-07 16:45 | 51.10895 | 16.87648 | 402 ft | 22 kts | 296° |
| 2026-05-07 16:45 | 51.10938 | 16.87448 | 402 ft | 14 kts | 253° |
| 2026-05-07 16:45 | 51.10863 | 16.87356 | 402 ft | 14 kts | 206° |
| 2026-05-07 16:46 | 51.10780 | 16.87291 | 402 ft | 11 kts | 206° |
| 2026-05-07 16:46 | 51.10777 | 16.87289 | 402 ft | 0 kts | 206° |
| 2026-05-07 16:46 | 51.10772 | 16.87285 | 402 ft | 3 kts | 206° |
| 2026-05-07 16:46 | 51.10733 | 16.87259 | 403 ft | 11 kts | 198° |
| 2026-05-07 16:47 | 51.10644 | 16.87333 | 399 ft | 20 kts | 120° |
| 2026-05-07 16:47 | 51.10572 | 16.87585 | 399 ft | 31 kts | 116° |
| 2026-05-07 16:47 | 51.10471 | 16.87917 | 400 ft | 39 kts | 115° |
| 2026-05-07 16:47 | 51.10342 | 16.88341 | 405 ft | 46 kts | 116° |
| 2026-05-07 16:48 | 51.10191 | 16.88834 | 399 ft | 53 kts | 115° |
| 2026-05-07 16:48 | 51.10026 | 16.89371 | 402 ft | 53 kts | 114° |
| 2026-05-07 16:48 | 51.09939 | 16.89729 | 402 ft | 6 kts | 121° |
| 2026-05-07 16:48 | 51.09916 | 16.89747 | 402 ft | 0 kts | 172° |
| 2026-05-07 16:49 | 51.09913 | 16.89743 | 402 ft | 1 kts | 204° |
| 2026-05-07 16:49 | 51.09912 | 16.89728 | 402 ft | 1 kts | 282° |
| 2026-05-07 16:49 | 51.09925 | 16.89694 | 403 ft | 0 kts | 296° |
| 2026-05-07 16:50 | 51.09955 | 16.89599 | 401 ft | 40 kts | 296° |
| 2026-05-07 16:50 | 51.10207 | 16.88781 | 403 ft | 122 kts | 296° |
| 2026-05-07 16:50 | 51.10655 | 16.87324 | 770 ft | 160 kts | 296° |
| 2026-05-07 16:51 | 51.11148 | 16.85602 | 1657 ft | 176 kts | 295° |
| 2026-05-07 16:51 | 51.11624 | 16.83770 | 2667 ft | 177 kts | 285° |
| 2026-05-07 16:51 | 51.11810 | 16.81979 | 3920 ft | 161 kts | 271° |
| 2026-05-07 16:51 | 51.11948 | 16.79987 | 4166 ft | 199 kts | 281° |
| 2026-05-07 16:52 | 51.12418 | 16.77725 | 4534 ft | 217 kts | 286° |
| 2026-05-07 16:52 | 51.12868 | 16.75471 | 5419 ft | 209 kts | 283° |
| 2026-05-07 16:52 | 51.13211 | 16.73463 | 6844 ft | 175 kts | 280° |
| 2026-05-07 16:52 | 51.13539 | 16.71360 | 7056 ft | 207 kts | 284° |
| 2026-05-07 16:53 | 51.14091 | 16.69275 | 7910 ft | 195 kts | 285° |
| 2026-05-07 16:53 | 51.14462 | 16.67344 | 9075 ft | 172 kts | 276° |
| 2026-05-07 16:53 | 51.14608 | 16.65510 | 9909 ft | 173 kts | 266° |
| 2026-05-07 16:53 | 51.14721 | 16.63383 | 9822 ft | 219 kts | 281° |
| 2026-05-07 16:54 | 51.15607 | 16.61124 | 9867 ft | 258 kts | 312° |
| 2026-05-07 16:54 | 51.17197 | 16.59719 | 10452 ft | 268 kts | 341° |
| 2026-05-07 16:54 | 51.19087 | 16.59433 | 10954 ft | 282 kts | 1° |
| 2026-05-07 16:54 | 51.21089 | 16.59908 | 11313 ft | 298 kts | 11° |
| 2026-05-07 16:55 | 51.23131 | 16.60910 | 11571 ft | 324 kts | 22° |
| 2026-05-07 16:55 | 51.25167 | 16.62810 | 11743 ft | 349 kts | 37° |
| 2026-05-07 16:55 | 51.26903 | 16.65650 | 12033 ft | 372 kts | 56° |
| 2026-05-07 16:55 | 51.28099 | 16.69411 | 12449 ft | 378 kts | 74° |
| 2026-05-07 16:56 | 51.28638 | 16.73411 | 13569 ft | 370 kts | 88° |
| 2026-05-07 16:56 | 51.28667 | 16.77523 | 14558 ft | 363 kts | 98° |
| 2026-05-07 16:56 | 51.27576 | 16.85414 | 15926 ft | 370 kts | 114° |
| 2026-05-07 16:57 | 51.26622 | 16.89213 | 16466 ft | 377 kts | 119° |
| 2026-05-07 16:57 | 51.25452 | 16.92987 | 17131 ft | 381 kts | 123° |
| 2026-05-07 16:57 | 51.24080 | 16.96578 | 17862 ft | 379 kts | 134° |
| 2026-05-07 16:57 | 51.22077 | 16.99371 | 17854 ft | 392 kts | 153° |
| 2026-05-07 16:58 | 51.19536 | 17.01150 | 17768 ft | 406 kts | 167° |
| 2026-05-07 16:58 | 51.16922 | 17.02403 | 19104 ft | 384 kts | 168° |
| 2026-05-07 16:58 | 51.14403 | 17.03606 | 20126 ft | 376 kts | 167° |
| 2026-05-07 16:58 | 51.12699 | 17.04430 | 20396 ft | 383 kts | 167° |
| 2026-05-07 16:59 | 51.10092 | 17.05690 | 20439 ft | 398 kts | 167° |
| 2026-05-07 16:59 | 51.07416 | 17.06975 | 20848 ft | 405 kts | 168° |
| 2026-05-07 16:59 | 51.04689 | 17.08270 | 21079 ft | 415 kts | 168° |
| 2026-05-07 16:59 | 51.01891 | 17.09575 | 21363 ft | 421 kts | 168° |
| 2026-05-07 17:00 | 50.99079 | 17.10863 | 21904 ft | 421 kts | 168° |
| 2026-05-07 17:00 | 50.96260 | 17.12131 | 22461 ft | 421 kts | 169° |
| 2026-05-07 17:00 | 50.93433 | 17.13371 | 22942 ft | 422 kts | 169° |
| 2026-05-07 17:00 | 50.90583 | 17.14584 | 23292 ft | 427 kts | 169° |
| 2026-05-07 17:01 | 50.87730 | 17.15759 | 23521 ft | 432 kts | 170° |
| 2026-05-07 17:01 | 50.84757 | 17.16941 | 23706 ft | 438 kts | 171° |
| 2026-05-07 17:01 | 50.81822 | 17.18069 | 23952 ft | 441 kts | 171° |
| 2026-05-07 17:01 | 50.78790 | 17.19196 | 24277 ft | 442 kts | 171° |
| 2026-05-07 17:02 | 50.75834 | 17.20260 | 24666 ft | 442 kts | 172° |
| 2026-05-07 17:02 | 50.72828 | 17.21306 | 25049 ft | 442 kts | 172° |
| 2026-05-07 17:02 | 50.69812 | 17.22316 | 25359 ft | 444 kts | 172° |
| 2026-05-07 17:02 | 50.66773 | 17.23290 | 25581 ft | 448 kts | 173° |
| 2026-05-07 17:03 | 50.63695 | 17.24231 | 25738 ft | 452 kts | 173° |
| 2026-05-07 17:03 | 50.60589 | 17.25139 | 25894 ft | 456 kts | 174° |